sensor_id;sensor_type;location;lat;lon;timestamp;temperature;humidity
49224;DHT22;35050;51.316;5.994;2023-06-19T00:02:02;23.40;94.90
49224;DHT22;35050;51.316;5.994;2023-06-19T00:04:28;23.30;94.90
49224;DHT22;35050;51.316;5.994;2023-06-19T00:06:54;23.30;94.90
49224;DHT22;35050;51.316;5.994;2023-06-19T00:09:20;23.10;94.40
49224;DHT22;35050;51.316;5.994;2023-06-19T00:11:45;23.20;94.70
49224;DHT22;35050;51.316;5.994;2023-06-19T00:14:11;23.30;94.90
49224;DHT22;35050;51.316;5.994;2023-06-19T00:16:37;23.20;94.90
49224;DHT22;35050;51.316;5.994;2023-06-19T00:19:02;23.30;94.40
49224;DHT22;35050;51.316;5.994;2023-06-19T00:21:29;23.20;94.70
49224;DHT22;35050;51.316;5.994;2023-06-19T00:23:55;23.30;94.70
49224;DHT22;35050;51.316;5.994;2023-06-19T00:26:21;23.10;94.50
49224;DHT22;35050;51.316;5.994;2023-06-19T00:28:51;23.20;94.40
49224;DHT22;35050;51.316;5.994;2023-06-19T00:31:17;23.20;94.60
49224;DHT22;35050;51.316;5.994;2023-06-19T00:33:44;23.10;95.00
49224;DHT22;35050;51.316;5.994;2023-06-19T00:36:12;23.10;94.30
49224;DHT22;35050;51.316;5.994;2023-06-19T00:38:40;23.10;94.60
49224;DHT22;35050;51.316;5.994;2023-06-19T00:41:06;23.10;95.10
49224;DHT22;35050;51.316;5.994;2023-06-19T00:43:33;23.00;94.90
49224;DHT22;35050;51.316;5.994;2023-06-19T00:45:59;22.90;95.00
49224;DHT22;35050;51.316;5.994;2023-06-19T00:48:26;22.90;94.90
49224;DHT22;35050;51.316;5.994;2023-06-19T00:50:52;22.80;94.90
49224;DHT22;35050;51.316;5.994;2023-06-19T00:53:19;22.90;94.90
49224;DHT22;35050;51.316;5.994;2023-06-19T00:55:46;22.80;95.10
49224;DHT22;35050;51.316;5.994;2023-06-19T00:58:13;22.90;95.20
49224;DHT22;35050;51.316;5.994;2023-06-19T01:00:38;22.80;95.40
49224;DHT22;35050;51.316;5.994;2023-06-19T01:03:04;22.90;95.10
49224;DHT22;35050;51.316;5.994;2023-06-19T01:05:30;22.90;95.10
49224;DHT22;35050;51.316;5.994;2023-06-19T01:11:04;22.80;95.40
49224;DHT22;35050;51.316;5.994;2023-06-19T01:13:46;22.70;95.20
49224;DHT22;35050;51.316;5.994;2023-06-19T01:16:13;22.70;95.20
49224;DHT22;35050;51.316;5.994;2023-06-19T01:18:39;22.70;95.30
49224;DHT22;35050;51.316;5.994;2023-06-19T01:21:13;22.80;95.10
49224;DHT22;35050;51.316;5.994;2023-06-19T01:23:40;22.80;95.00
49224;DHT22;35050;51.316;5.994;2023-06-19T01:26:07;22.70;94.70
49224;DHT22;35050;51.316;5.994;2023-06-19T01:28:36;22.70;95.10
49224;DHT22;35050;51.316;5.994;2023-06-19T01:31:10;22.70;95.00
49224;DHT22;35050;51.316;5.994;2023-06-19T01:33:38;22.60;95.00
49224;DHT22;35050;51.316;5.994;2023-06-19T01:36:05;22.60;95.10
49224;DHT22;35050;51.316;5.994;2023-06-19T01:38:33;22.50;95.20
49224;DHT22;35050;51.316;5.994;2023-06-19T01:41:01;22.60;94.80
49224;DHT22;35050;51.316;5.994;2023-06-19T01:43:29;22.50;95.00
49224;DHT22;35050;51.316;5.994;2023-06-19T01:45:56;22.40;95.30
49224;DHT22;35050;51.316;5.994;2023-06-19T01:48:21;22.50;95.30
49224;DHT22;35050;51.316;5.994;2023-06-19T01:50:48;22.50;95.50
49224;DHT22;35050;51.316;5.994;2023-06-19T01:53:15;22.40;95.50
49224;DHT22;35050;51.316;5.994;2023-06-19T01:55:41;22.50;95.60
49224;DHT22;35050;51.316;5.994;2023-06-19T01:58:07;22.40;95.70
49224;DHT22;35050;51.316;5.994;2023-06-19T02:00:32;22.40;95.70
49224;DHT22;35050;51.316;5.994;2023-06-19T02:03:01;22.40;96.00
49224;DHT22;35050;51.316;5.994;2023-06-19T02:05:26;22.40;96.30
49224;DHT22;35050;51.316;5.994;2023-06-19T02:07:52;22.40;96.10
49224;DHT22;35050;51.316;5.994;2023-06-19T02:10:18;22.40;96.10
49224;DHT22;35050;51.316;5.994;2023-06-19T02:12:43;22.40;96.20
49224;DHT22;35050;51.316;5.994;2023-06-19T02:15:09;22.40;96.20
49224;DHT22;35050;51.316;5.994;2023-06-19T02:17:35;22.30;96.20
49224;DHT22;35050;51.316;5.994;2023-06-19T02:20:01;22.40;96.40
49224;DHT22;35050;51.316;5.994;2023-06-19T02:22:27;22.30;96.60
49224;DHT22;35050;51.316;5.994;2023-06-19T02:24:52;22.20;96.70
49224;DHT22;35050;51.316;5.994;2023-06-19T02:27:18;22.10;97.00
49224;DHT22;35050;51.316;5.994;2023-06-19T02:29:44;22.10;97.10
49224;DHT22;35050;51.316;5.994;2023-06-19T02:32:09;22.10;97.20
49224;DHT22;35050;51.316;5.994;2023-06-19T02:34:36;21.90;97.70
49224;DHT22;35050;51.316;5.994;2023-06-19T02:37:01;21.90;98.30
49224;DHT22;35050;51.316;5.994;2023-06-19T02:39:27;21.70;99.00
49224;DHT22;35050;51.316;5.994;2023-06-19T02:41:52;21.70;99.30
49224;DHT22;35050;51.316;5.994;2023-06-19T02:44:18;21.60;99.40
49224;DHT22;35050;51.316;5.994;2023-06-19T02:46:44;21.70;99.60
49224;DHT22;35050;51.316;5.994;2023-06-19T02:49:09;21.60;99.80
49224;DHT22;35050;51.316;5.994;2023-06-19T02:51:35;21.50;99.90
49224;DHT22;35050;51.316;5.994;2023-06-19T02:54:00;21.40;99.90
49224;DHT22;35050;51.316;5.994;2023-06-19T02:56:26;21.40;99.90
49224;DHT22;35050;51.316;5.994;2023-06-19T02:58:53;21.50;99.90
49224;DHT22;35050;51.316;5.994;2023-06-19T03:01:18;21.40;99.90
49224;DHT22;35050;51.316;5.994;2023-06-19T03:03:44;21.40;99.90
49224;DHT22;35050;51.316;5.994;2023-06-19T03:06:12;21.30;99.90
49224;DHT22;35050;51.316;5.994;2023-06-19T03:08:39;21.30;99.90
49224;DHT22;35050;51.316;5.994;2023-06-19T03:11:05;21.40;99.90
49224;DHT22;35050;51.316;5.994;2023-06-19T03:13:44;21.30;99.90
49224;DHT22;35050;51.316;5.994;2023-06-19T03:16:11;21.30;99.90
49224;DHT22;35050;51.316;5.994;2023-06-19T03:18:36;21.40;99.90
49224;DHT22;35050;51.316;5.994;2023-06-19T03:21:02;21.30;99.90
49224;DHT22;35050;51.316;5.994;2023-06-19T03:23:28;21.30;99.90
49224;DHT22;35050;51.316;5.994;2023-06-19T03:25:53;21.20;99.90
49224;DHT22;35050;51.316;5.994;2023-06-19T03:28:19;21.20;99.90
49224;DHT22;35050;51.316;5.994;2023-06-19T03:30:45;21.10;99.90
49224;DHT22;35050;51.316;5.994;2023-06-19T03:33:10;21.20;99.90
49224;DHT22;35050;51.316;5.994;2023-06-19T03:35:36;21.10;99.90
49224;DHT22;35050;51.316;5.994;2023-06-19T03:38:02;21.10;99.90
49224;DHT22;35050;51.316;5.994;2023-06-19T03:40:27;21.00;99.90
49224;DHT22;35050;51.316;5.994;2023-06-19T03:42:54;21.00;99.90
49224;DHT22;35050;51.316;5.994;2023-06-19T03:45:20;21.00;99.90
49224;DHT22;35050;51.316;5.994;2023-06-19T03:47:45;20.80;99.90
49224;DHT22;35050;51.316;5.994;2023-06-19T03:50:11;20.90;99.90
49224;DHT22;35050;51.316;5.994;2023-06-19T03:52:36;20.90;99.90
49224;DHT22;35050;51.316;5.994;2023-06-19T03:55:03;20.80;99.90
49224;DHT22;35050;51.316;5.994;2023-06-19T03:57:29;20.80;99.90
49224;DHT22;35050;51.316;5.994;2023-06-19T03:59:55;20.70;99.90
49224;DHT22;35050;51.316;5.994;2023-06-19T04:02:21;20.60;99.90
49224;DHT22;35050;51.316;5.994;2023-06-19T04:04:47;20.50;99.90
49224;DHT22;35050;51.316;5.994;2023-06-19T04:07:13;20.70;99.90
49224;DHT22;35050;51.316;5.994;2023-06-19T04:09:39;20.60;99.90
49224;DHT22;35050;51.316;5.994;2023-06-19T04:12:05;20.40;99.90
49224;DHT22;35050;51.316;5.994;2023-06-19T04:14:31;20.60;99.90
49224;DHT22;35050;51.316;5.994;2023-06-19T04:16:56;20.60;99.90
49224;DHT22;35050;51.316;5.994;2023-06-19T04:19:22;20.40;99.90
49224;DHT22;35050;51.316;5.994;2023-06-19T04:21:47;20.50;99.90
49224;DHT22;35050;51.316;5.994;2023-06-19T04:24:13;20.50;99.90
49224;DHT22;35050;51.316;5.994;2023-06-19T04:26:39;20.50;99.90
49224;DHT22;35050;51.316;5.994;2023-06-19T04:29:04;20.50;99.90
49224;DHT22;35050;51.316;5.994;2023-06-19T04:31:32;20.70;99.90
49224;DHT22;35050;51.316;5.994;2023-06-19T04:33:57;20.80;99.90
49224;DHT22;35050;51.316;5.994;2023-06-19T04:36:23;20.80;99.90
49224;DHT22;35050;51.316;5.994;2023-06-19T04:38:49;20.80;99.90
49224;DHT22;35050;51.316;5.994;2023-06-19T04:41:17;20.80;99.90
49224;DHT22;35050;51.316;5.994;2023-06-19T04:43:42;20.80;99.90
49224;DHT22;35050;51.316;5.994;2023-06-19T04:46:08;21.00;99.90
49224;DHT22;35050;51.316;5.994;2023-06-19T04:48:33;21.00;99.90
49224;DHT22;35050;51.316;5.994;2023-06-19T04:51:02;21.00;99.90
49224;DHT22;35050;51.316;5.994;2023-06-19T04:53:28;21.00;99.90
49224;DHT22;35050;51.316;5.994;2023-06-19T04:55:54;21.00;99.90
49224;DHT22;35050;51.316;5.994;2023-06-19T04:58:21;21.10;99.90
49224;DHT22;35050;51.316;5.994;2023-06-19T05:00:47;21.00;99.90
49224;DHT22;35050;51.316;5.994;2023-06-19T05:03:19;21.00;99.90
49224;DHT22;35050;51.316;5.994;2023-06-19T05:05:47;20.90;99.90
49224;DHT22;35050;51.316;5.994;2023-06-19T05:08:13;21.10;99.90
49224;DHT22;35050;51.316;5.994;2023-06-19T05:10:38;21.10;99.90
49224;DHT22;35050;51.316;5.994;2023-06-19T05:13:04;21.10;99.90
49224;DHT22;35050;51.316;5.994;2023-06-19T05:15:29;21.10;99.90
49224;DHT22;35050;51.316;5.994;2023-06-19T05:17:55;21.10;99.90
49224;DHT22;35050;51.316;5.994;2023-06-19T05:20:21;21.20;99.90
49224;DHT22;35050;51.316;5.994;2023-06-19T05:22:46;21.20;99.90
49224;DHT22;35050;51.316;5.994;2023-06-19T05:25:12;21.20;99.90
49224;DHT22;35050;51.316;5.994;2023-06-19T05:27:38;21.20;99.90
49224;DHT22;35050;51.316;5.994;2023-06-19T05:30:04;21.00;99.90
49224;DHT22;35050;51.316;5.994;2023-06-19T05:32:30;21.20;99.90
49224;DHT22;35050;51.316;5.994;2023-06-19T05:34:56;21.30;99.90
49224;DHT22;35050;51.316;5.994;2023-06-19T05:37:23;21.40;99.90
49224;DHT22;35050;51.316;5.994;2023-06-19T05:39:49;21.50;99.90
49224;DHT22;35050;51.316;5.994;2023-06-19T05:42:14;21.40;99.90
49224;DHT22;35050;51.316;5.994;2023-06-19T05:44:40;21.30;99.90
49224;DHT22;35050;51.316;5.994;2023-06-19T05:47:06;21.30;99.90
49224;DHT22;35050;51.316;5.994;2023-06-19T05:49:32;21.30;99.90
49224;DHT22;35050;51.316;5.994;2023-06-19T05:51:57;21.30;99.90
49224;DHT22;35050;51.316;5.994;2023-06-19T05:54:26;21.40;99.90
49224;DHT22;35050;51.316;5.994;2023-06-19T05:56:52;21.00;99.90
49224;DHT22;35050;51.316;5.994;2023-06-19T05:59:18;21.20;99.90
49224;DHT22;35050;51.316;5.994;2023-06-19T06:01:44;21.20;99.90
49224;DHT22;35050;51.316;5.994;2023-06-19T06:04:09;21.10;99.90
49224;DHT22;35050;51.316;5.994;2023-06-19T06:06:35;21.10;99.90
49224;DHT22;35050;51.316;5.994;2023-06-19T06:09:01;21.00;99.90
49224;DHT22;35050;51.316;5.994;2023-06-19T06:11:26;21.00;99.90
49224;DHT22;35050;51.316;5.994;2023-06-19T06:13:52;20.80;99.90
49224;DHT22;35050;51.316;5.994;2023-06-19T06:16:17;20.90;99.90
49224;DHT22;35050;51.316;5.994;2023-06-19T06:18:44;21.10;99.90
49224;DHT22;35050;51.316;5.994;2023-06-19T06:21:10;21.30;99.90
49224;DHT22;35050;51.316;5.994;2023-06-19T06:23:38;21.40;99.90
49224;DHT22;35050;51.316;5.994;2023-06-19T06:26:03;21.30;99.90
49224;DHT22;35050;51.316;5.994;2023-06-19T06:28:30;21.40;99.90
49224;DHT22;35050;51.316;5.994;2023-06-19T06:30:57;21.40;99.90
49224;DHT22;35050;51.316;5.994;2023-06-19T06:33:23;21.20;99.90
49224;DHT22;35050;51.316;5.994;2023-06-19T06:35:48;21.40;99.90
49224;DHT22;35050;51.316;5.994;2023-06-19T06:38:14;21.40;99.90
49224;DHT22;35050;51.316;5.994;2023-06-19T06:40:40;21.60;99.90
49224;DHT22;35050;51.316;5.994;2023-06-19T06:43:07;21.50;99.90
49224;DHT22;35050;51.316;5.994;2023-06-19T06:45:32;21.60;99.90
49224;DHT22;35050;51.316;5.994;2023-06-19T06:47:58;21.50;99.90
49224;DHT22;35050;51.316;5.994;2023-06-19T06:50:23;21.50;99.90
49224;DHT22;35050;51.316;5.994;2023-06-19T06:52:49;21.70;99.90
49224;DHT22;35050;51.316;5.994;2023-06-19T06:55:15;21.90;99.90
49224;DHT22;35050;51.316;5.994;2023-06-19T06:57:40;22.00;99.90
49224;DHT22;35050;51.316;5.994;2023-06-19T07:00:06;22.20;99.90
49224;DHT22;35050;51.316;5.994;2023-06-19T07:02:35;22.30;99.90
49224;DHT22;35050;51.316;5.994;2023-06-19T07:05:02;22.40;99.90
49224;DHT22;35050;51.316;5.994;2023-06-19T07:07:28;22.60;99.90
49224;DHT22;35050;51.316;5.994;2023-06-19T07:09:53;22.90;99.90
49224;DHT22;35050;51.316;5.994;2023-06-19T07:12:19;22.90;99.90
49224;DHT22;35050;51.316;5.994;2023-06-19T07:14:44;22.70;99.90
49224;DHT22;35050;51.316;5.994;2023-06-19T07:17:10;22.70;99.90
49224;DHT22;35050;51.316;5.994;2023-06-19T07:19:36;22.50;99.90
49224;DHT22;35050;51.316;5.994;2023-06-19T07:22:02;22.30;99.90
49224;DHT22;35050;51.316;5.994;2023-06-19T07:24:27;22.40;99.90
49224;DHT22;35050;51.316;5.994;2023-06-19T07:26:53;22.70;99.90
49224;DHT22;35050;51.316;5.994;2023-06-19T07:29:19;23.00;99.90
49224;DHT22;35050;51.316;5.994;2023-06-19T07:31:44;23.30;99.90
49224;DHT22;35050;51.316;5.994;2023-06-19T07:34:10;23.30;99.90
49224;DHT22;35050;51.316;5.994;2023-06-19T07:36:36;23.00;99.90
49224;DHT22;35050;51.316;5.994;2023-06-19T07:39:02;23.00;99.90
49224;DHT22;35050;51.316;5.994;2023-06-19T07:41:28;22.70;99.90
49224;DHT22;35050;51.316;5.994;2023-06-19T07:43:53;22.80;99.90
49224;DHT22;35050;51.316;5.994;2023-06-19T07:46:19;22.90;99.90
49224;DHT22;35050;51.316;5.994;2023-06-19T07:48:44;22.80;99.90
49224;DHT22;35050;51.316;5.994;2023-06-19T07:51:10;22.70;99.90
49224;DHT22;35050;51.316;5.994;2023-06-19T07:53:36;22.90;99.90
49224;DHT22;35050;51.316;5.994;2023-06-19T07:56:01;22.50;99.90
49224;DHT22;35050;51.316;5.994;2023-06-19T07:58:27;22.60;99.90
49224;DHT22;35050;51.316;5.994;2023-06-19T08:00:53;22.80;99.90
49224;DHT22;35050;51.316;5.994;2023-06-19T08:03:18;22.70;99.90
49224;DHT22;35050;51.316;5.994;2023-06-19T08:05:44;23.00;99.90
49224;DHT22;35050;51.316;5.994;2023-06-19T08:08:12;23.30;99.90
49224;DHT22;35050;51.316;5.994;2023-06-19T08:10:38;23.20;99.90
49224;DHT22;35050;51.316;5.994;2023-06-19T08:13:03;23.40;99.90
49224;DHT22;35050;51.316;5.994;2023-06-19T08:15:29;23.50;99.90
49224;DHT22;35050;51.316;5.994;2023-06-19T08:17:55;23.30;99.90
49224;DHT22;35050;51.316;5.994;2023-06-19T08:20:20;23.90;99.90
49224;DHT22;35050;51.316;5.994;2023-06-19T08:22:46;23.90;99.90
49224;DHT22;35050;51.316;5.994;2023-06-19T08:25:12;24.10;99.90
49224;DHT22;35050;51.316;5.994;2023-06-19T08:27:37;24.00;99.90
49224;DHT22;35050;51.316;5.994;2023-06-19T08:30:03;24.00;99.90
49224;DHT22;35050;51.316;5.994;2023-06-19T08:32:29;24.00;99.90
49224;DHT22;35050;51.316;5.994;2023-06-19T08:34:55;23.70;99.90
49224;DHT22;35050;51.316;5.994;2023-06-19T08:37:21;23.60;99.90
49224;DHT22;35050;51.316;5.994;2023-06-19T08:39:46;23.80;99.90
49224;DHT22;35050;51.316;5.994;2023-06-19T08:42:12;24.20;99.90
49224;DHT22;35050;51.316;5.994;2023-06-19T08:44:38;23.80;99.90
49224;DHT22;35050;51.316;5.994;2023-06-19T08:47:04;23.70;99.90
49224;DHT22;35050;51.316;5.994;2023-06-19T08:49:31;24.50;99.90
49224;DHT22;35050;51.316;5.994;2023-06-19T08:51:58;24.30;99.90
49224;DHT22;35050;51.316;5.994;2023-06-19T08:54:24;24.50;99.90
49224;DHT22;35050;51.316;5.994;2023-06-19T08:56:51;24.70;99.90
49224;DHT22;35050;51.316;5.994;2023-06-19T08:59:19;24.90;99.00
49224;DHT22;35050;51.316;5.994;2023-06-19T09:01:52;24.80;99.30
49224;DHT22;35050;51.316;5.994;2023-06-19T09:04:23;25.30;98.30
49224;DHT22;35050;51.316;5.994;2023-06-19T09:07:03;25.60;97.00
49224;DHT22;35050;51.316;5.994;2023-06-19T09:09:29;26.10;96.80
49224;DHT22;35050;51.316;5.994;2023-06-19T09:11:59;26.00;95.90
49224;DHT22;35050;51.316;5.994;2023-06-19T09:14:34;25.90;95.60
49224;DHT22;35050;51.316;5.994;2023-06-19T09:17:02;25.70;95.80
49224;DHT22;35050;51.316;5.994;2023-06-19T09:19:27;25.80;96.00
49224;DHT22;35050;51.316;5.994;2023-06-19T09:21:53;25.90;95.60
49224;DHT22;35050;51.316;5.994;2023-06-19T09:24:24;25.60;95.90
49224;DHT22;35050;51.316;5.994;2023-06-19T09:27:15;25.40;95.60
49224;DHT22;35050;51.316;5.994;2023-06-19T09:29:45;25.30;95.80
49224;DHT22;35050;51.316;5.994;2023-06-19T09:32:21;25.30;96.20
49224;DHT22;35050;51.316;5.994;2023-06-19T09:34:49;25.50;96.20
49224;DHT22;35050;51.316;5.994;2023-06-19T09:37:24;24.90;95.90
49224;DHT22;35050;51.316;5.994;2023-06-19T09:39:56;25.20;95.70
49224;DHT22;35050;51.316;5.994;2023-06-19T09:42:33;25.10;95.70
49224;DHT22;35050;51.316;5.994;2023-06-19T09:45:11;25.40;95.90
49224;DHT22;35050;51.316;5.994;2023-06-19T09:47:44;25.50;95.60
49224;DHT22;35050;51.316;5.994;2023-06-19T09:50:15;25.50;95.10
49224;DHT22;35050;51.316;5.994;2023-06-19T09:52:41;26.10;95.00
49224;DHT22;35050;51.316;5.994;2023-06-19T09:55:08;26.60;94.80
49224;DHT22;35050;51.316;5.994;2023-06-19T09:57:35;27.10;93.80
49224;DHT22;35050;51.316;5.994;2023-06-19T10:00:05;27.10;93.50
49224;DHT22;35050;51.316;5.994;2023-06-19T10:02:39;27.60;93.60
49224;DHT22;35050;51.316;5.994;2023-06-19T10:05:06;27.50;91.90
49224;DHT22;35050;51.316;5.994;2023-06-19T10:07:37;26.60;91.10
49224;DHT22;35050;51.316;5.994;2023-06-19T10:10:04;27.10;91.50
49224;DHT22;35050;51.316;5.994;2023-06-19T10:12:43;27.40;91.20
49224;DHT22;35050;51.316;5.994;2023-06-19T10:17:35;27.10;90.10
49224;DHT22;35050;51.316;5.994;2023-06-19T10:20:00;27.30;90.50
49224;DHT22;35050;51.316;5.994;2023-06-19T10:22:32;27.40;90.80
49224;DHT22;35050;51.316;5.994;2023-06-19T10:24:58;27.60;90.40
49224;DHT22;35050;51.316;5.994;2023-06-19T10:27:25;27.80;91.10
49224;DHT22;35050;51.316;5.994;2023-06-19T10:29:54;27.60;91.00
49224;DHT22;35050;51.316;5.994;2023-06-19T10:32:23;27.80;91.40
49224;DHT22;35050;51.316;5.994;2023-06-19T10:34:49;28.00;90.10
49224;DHT22;35050;51.316;5.994;2023-06-19T10:37:17;28.30;90.60
49224;DHT22;35050;51.316;5.994;2023-06-19T10:39:43;28.60;90.70
49224;DHT22;35050;51.316;5.994;2023-06-19T10:42:09;28.20;88.50
49224;DHT22;35050;51.316;5.994;2023-06-19T10:44:35;28.60;90.10
49224;DHT22;35050;51.316;5.994;2023-06-19T10:47:04;28.70;88.90
49224;DHT22;35050;51.316;5.994;2023-06-19T10:49:29;28.70;87.80
49224;DHT22;35050;51.316;5.994;2023-06-19T10:51:59;28.50;87.30
49224;DHT22;35050;51.316;5.994;2023-06-19T10:54:25;28.10;85.90
49224;DHT22;35050;51.316;5.994;2023-06-19T10:56:51;28.40;86.00
49224;DHT22;35050;51.316;5.994;2023-06-19T10:59:17;28.00;87.60
49224;DHT22;35050;51.316;5.994;2023-06-19T11:01:48;27.90;87.00
49224;DHT22;35050;51.316;5.994;2023-06-19T11:04:16;27.70;86.80
49224;DHT22;35050;51.316;5.994;2023-06-19T11:06:43;27.60;86.80
49224;DHT22;35050;51.316;5.994;2023-06-19T11:09:10;28.20;87.80
49224;DHT22;35050;51.316;5.994;2023-06-19T11:14:05;28.40;87.90
49224;DHT22;35050;51.316;5.994;2023-06-19T11:16:31;28.60;87.30
49224;DHT22;35050;51.316;5.994;2023-06-19T11:18:57;28.50;86.50
49224;DHT22;35050;51.316;5.994;2023-06-19T11:21:33;28.30;86.40
49224;DHT22;35050;51.316;5.994;2023-06-19T11:24:01;27.80;86.00
49224;DHT22;35050;51.316;5.994;2023-06-19T11:26:27;28.40;86.70
49224;DHT22;35050;51.316;5.994;2023-06-19T11:28:53;29.10;87.90
49224;DHT22;35050;51.316;5.994;2023-06-19T11:31:25;29.00;83.20
49224;DHT22;35050;51.316;5.994;2023-06-19T11:33:59;28.80;83.70
49224;DHT22;35050;51.316;5.994;2023-06-19T11:36:26;29.40;84.50
49224;DHT22;35050;51.316;5.994;2023-06-19T11:38:53;28.50;82.70
49224;DHT22;35050;51.316;5.994;2023-06-19T11:41:29;28.80;83.80
49224;DHT22;35050;51.316;5.994;2023-06-19T11:44:05;28.90;82.70
49224;DHT22;35050;51.316;5.994;2023-06-19T11:46:32;29.20;83.20
49224;DHT22;35050;51.316;5.994;2023-06-19T11:49:17;29.20;82.50
49224;DHT22;35050;51.316;5.994;2023-06-19T11:51:46;29.10;82.10
49224;DHT22;35050;51.316;5.994;2023-06-19T11:54:13;29.10;81.80
49224;DHT22;35050;51.316;5.994;2023-06-19T11:56:40;29.30;81.90
49224;DHT22;35050;51.316;5.994;2023-06-19T11:59:06;29.90;82.80
49224;DHT22;35050;51.316;5.994;2023-06-19T12:01:33;30.10;82.20
49224;DHT22;35050;51.316;5.994;2023-06-19T12:03:59;29.60;80.50
49224;DHT22;35050;51.316;5.994;2023-06-19T12:06:25;29.90;80.20
49224;DHT22;35050;51.316;5.994;2023-06-19T12:08:51;30.40;80.70
49224;DHT22;35050;51.316;5.994;2023-06-19T12:11:17;30.20;79.80
49224;DHT22;35050;51.316;5.994;2023-06-19T12:13:42;29.90;80.50
49224;DHT22;35050;51.316;5.994;2023-06-19T12:16:10;29.80;77.80
49224;DHT22;35050;51.316;5.994;2023-06-19T12:18:36;29.90;79.60
49224;DHT22;35050;51.316;5.994;2023-06-19T12:21:02;30.00;77.90
49224;DHT22;35050;51.316;5.994;2023-06-19T12:23:28;29.90;75.20
49224;DHT22;35050;51.316;5.994;2023-06-19T12:25:53;29.70;76.70
49224;DHT22;35050;51.316;5.994;2023-06-19T12:28:19;30.50;75.30
49224;DHT22;35050;51.316;5.994;2023-06-19T12:30:45;30.60;76.40
49224;DHT22;35050;51.316;5.994;2023-06-19T12:33:11;31.10;77.90
49224;DHT22;35050;51.316;5.994;2023-06-19T12:35:41;31.00;75.60
49224;DHT22;35050;51.316;5.994;2023-06-19T12:38:07;30.80;74.10
49224;DHT22;35050;51.316;5.994;2023-06-19T12:40:33;31.60;75.10
49224;DHT22;35050;51.316;5.994;2023-06-19T12:42:59;31.40;74.10
49224;DHT22;35050;51.316;5.994;2023-06-19T12:45:24;31.90;76.70
49224;DHT22;35050;51.316;5.994;2023-06-19T12:47:50;31.20;74.80
49224;DHT22;35050;51.316;5.994;2023-06-19T12:50:16;31.40;75.10
49224;DHT22;35050;51.316;5.994;2023-06-19T12:52:41;31.10;71.30
49224;DHT22;35050;51.316;5.994;2023-06-19T12:55:07;31.40;74.10
49224;DHT22;35050;51.316;5.994;2023-06-19T12:57:33;31.30;73.30
49224;DHT22;35050;51.316;5.994;2023-06-19T12:59:59;31.50;73.60
49224;DHT22;35050;51.316;5.994;2023-06-19T13:02:25;32.10;74.20
49224;DHT22;35050;51.316;5.994;2023-06-19T13:04:51;31.40;75.10
49224;DHT22;35050;51.316;5.994;2023-06-19T13:07:17;32.00;74.60
49224;DHT22;35050;51.316;5.994;2023-06-19T13:09:42;32.10;72.60
49224;DHT22;35050;51.316;5.994;2023-06-19T13:12:08;31.80;70.10
49224;DHT22;35050;51.316;5.994;2023-06-19T13:14:34;31.40;70.40
49224;DHT22;35050;51.316;5.994;2023-06-19T13:17:00;31.70;72.10
49224;DHT22;35050;51.316;5.994;2023-06-19T13:19:26;32.50;72.50
49224;DHT22;35050;51.316;5.994;2023-06-19T13:21:52;31.80;72.60
49224;DHT22;35050;51.316;5.994;2023-06-19T13:24:18;31.90;70.80
49224;DHT22;35050;51.316;5.994;2023-06-19T13:26:44;31.70;71.40
49224;DHT22;35050;51.316;5.994;2023-06-19T13:29:11;32.00;71.70
49224;DHT22;35050;51.316;5.994;2023-06-19T13:31:37;31.60;72.40
49224;DHT22;35050;51.316;5.994;2023-06-19T13:34:03;31.80;70.70
49224;DHT22;35050;51.316;5.994;2023-06-19T13:36:29;31.50;71.00
49224;DHT22;35050;51.316;5.994;2023-06-19T13:38:55;31.90;70.40
49224;DHT22;35050;51.316;5.994;2023-06-19T13:41:21;32.10;70.10
49224;DHT22;35050;51.316;5.994;2023-06-19T13:43:49;31.70;70.60
49224;DHT22;35050;51.316;5.994;2023-06-19T13:46:16;31.70;70.40
49224;DHT22;35050;51.316;5.994;2023-06-19T13:48:41;32.00;70.30
49224;DHT22;35050;51.316;5.994;2023-06-19T13:51:07;32.60;70.00
49224;DHT22;35050;51.316;5.994;2023-06-19T13:53:33;32.20;69.50
49224;DHT22;35050;51.316;5.994;2023-06-19T13:55:59;32.20;69.50
49224;DHT22;35050;51.316;5.994;2023-06-19T13:58:24;31.60;69.40
49224;DHT22;35050;51.316;5.994;2023-06-19T14:00:50;32.30;71.40
49224;DHT22;35050;51.316;5.994;2023-06-19T14:03:16;32.50;71.00
49224;DHT22;35050;51.316;5.994;2023-06-19T14:05:42;32.70;69.60
49224;DHT22;35050;51.316;5.994;2023-06-19T14:08:09;32.90;70.60
49224;DHT22;35050;51.316;5.994;2023-06-19T14:10:34;33.00;69.70
49224;DHT22;35050;51.316;5.994;2023-06-19T14:13:01;32.80;70.10
49224;DHT22;35050;51.316;5.994;2023-06-19T14:15:26;32.90;70.50
49224;DHT22;35050;51.316;5.994;2023-06-19T14:17:52;33.00;69.60
49224;DHT22;35050;51.316;5.994;2023-06-19T14:20:18;32.90;69.80
49224;DHT22;35050;51.316;5.994;2023-06-19T14:22:43;33.00;68.80
49224;DHT22;35050;51.316;5.994;2023-06-19T14:25:09;32.60;68.90
49224;DHT22;35050;51.316;5.994;2023-06-19T14:27:35;32.90;70.60
49224;DHT22;35050;51.316;5.994;2023-06-19T14:30:00;33.10;69.80
49224;DHT22;35050;51.316;5.994;2023-06-19T14:32:26;33.30;69.30
49224;DHT22;35050;51.316;5.994;2023-06-19T14:34:51;33.40;68.40
49224;DHT22;35050;51.316;5.994;2023-06-19T14:37:17;33.30;68.30
49224;DHT22;35050;51.316;5.994;2023-06-19T14:39:43;33.10;68.90
49224;DHT22;35050;51.316;5.994;2023-06-19T14:42:09;32.80;67.90
49224;DHT22;35050;51.316;5.994;2023-06-19T14:44:36;33.10;68.30
49224;DHT22;35050;51.316;5.994;2023-06-19T14:47:02;32.80;67.00
49224;DHT22;35050;51.316;5.994;2023-06-19T14:49:27;31.90;68.20
49224;DHT22;35050;51.316;5.994;2023-06-19T14:51:53;32.70;69.30
49224;DHT22;35050;51.316;5.994;2023-06-19T14:54:19;33.20;68.60
49224;DHT22;35050;51.316;5.994;2023-06-19T14:56:45;33.00;68.20
49224;DHT22;35050;51.316;5.994;2023-06-19T14:59:14;32.90;67.40
49224;DHT22;35050;51.316;5.994;2023-06-19T15:01:39;32.90;69.00
49224;DHT22;35050;51.316;5.994;2023-06-19T15:04:06;32.50;67.90
49224;DHT22;35050;51.316;5.994;2023-06-19T15:06:32;32.90;68.40
49224;DHT22;35050;51.316;5.994;2023-06-19T15:08:58;33.10;68.10
49224;DHT22;35050;51.316;5.994;2023-06-19T15:11:24;32.70;67.60
49224;DHT22;35050;51.316;5.994;2023-06-19T15:13:49;32.60;69.10
49224;DHT22;35050;51.316;5.994;2023-06-19T15:16:15;32.00;68.10
49224;DHT22;35050;51.316;5.994;2023-06-19T15:18:42;32.40;68.30
49224;DHT22;35050;51.316;5.994;2023-06-19T15:21:08;32.70;68.70
49224;DHT22;35050;51.316;5.994;2023-06-19T15:23:34;32.60;67.70
49224;DHT22;35050;51.316;5.994;2023-06-19T15:26:00;32.30;68.00
49224;DHT22;35050;51.316;5.994;2023-06-19T15:28:25;32.80;68.20
49224;DHT22;35050;51.316;5.994;2023-06-19T15:30:51;33.00;67.00
49224;DHT22;35050;51.316;5.994;2023-06-19T15:33:17;32.90;68.30
49224;DHT22;35050;51.316;5.994;2023-06-19T15:35:42;33.20;69.30